Mill River, Massachusetts
Current Conditions -  °F | °C
As of 1:54 AM on Saturday 29 Nov 2014 (Local Time) from KPSF Reporting Station
Clear Clear  
Wind Chill: 10°   Ceiling: Unl
Heat Index: 18°   Visibility: 10mi
Dew Point: 11°   Wind: 6mph
Humidity: 74%   Direction: 300°WNW
Pressure: 30.17"   Gusts: NA
Location:  42.11°N, 73.26°W
Report Text: KPSF 290654Z AUTO 30005KT 10SM CLR M08/M12 A3017 RMK AO2 SLP235 T10781117
Loading
Personal Weather Stations






























Interactive Weather Map New forecast layout! Learn more

10-Day Weather Forecast

Advertisements
Track Severe Weather on mobile